createdAt,value
2018-11-23T00:01:21.337Z,49.20
2018-11-23T00:04:09.897Z,48.70
2018-11-23T00:06:58.395Z,48.90
2018-11-23T00:09:46.920Z,48.80
2018-11-23T00:15:43.552Z,48.60
2018-11-23T00:18:32.077Z,48.60
2018-11-23T00:21:20.564Z,48.60
2018-11-23T00:24:09.105Z,48.50
2018-11-23T00:26:57.595Z,48.70
2018-11-23T00:29:46.185Z,48.60
2018-11-23T00:32:34.760Z,48.80
2018-11-23T00:35:24.595Z,49.10
2018-11-23T00:38:13.470Z,49.00
2018-11-23T00:41:01.972Z,49.20
2018-11-23T00:43:50.591Z,49.20
2018-11-23T00:46:39.125Z,49.30
2018-11-23T00:49:27.747Z,49.40
2018-11-23T00:52:16.240Z,49.50
2018-11-23T00:55:04.788Z,49.30
2018-11-23T00:57:53.282Z,49.00
2018-11-23T01:00:41.986Z,49.30
2018-11-23T01:03:30.530Z,49.50
2018-11-23T01:06:19.034Z,50.10
2018-11-23T01:09:09.774Z,49.50
2018-11-23T01:11:58.285Z,49.70
2018-11-23T01:17:41.469Z,49.70
2018-11-23T01:20:30.230Z,49.90
2018-11-23T01:23:18.721Z,49.90
2018-11-23T01:26:07.357Z,49.80
2018-11-23T01:28:56.083Z,49.90
2018-11-23T01:31:44.620Z,49.70
2018-11-23T01:34:33.135Z,49.40
2018-11-23T01:37:22.229Z,49.60
2018-11-23T01:40:12.111Z,49.30
2018-11-23T01:43:00.790Z,49.70
2018-11-23T01:45:49.374Z,49.60
2018-11-23T01:48:37.995Z,49.60
2018-11-23T01:51:26.475Z,49.80
2018-11-23T01:54:15.027Z,49.80
2018-11-23T01:57:03.555Z,49.50
2018-11-23T01:59:52.199Z,49.90
2018-11-23T02:02:40.673Z,49.70
2018-11-23T02:05:29.201Z,49.70
2018-11-23T02:08:17.665Z,49.30
2018-11-23T02:11:06.192Z,49.70
2018-11-23T02:13:54.705Z,49.80
2018-11-23T02:16:43.206Z,50.10
2018-11-23T02:19:31.703Z,49.80
2018-11-23T02:22:20.200Z,50.10
2018-11-23T02:25:08.747Z,50.50
2018-11-23T02:27:57.207Z,50.10
2018-11-23T02:30:45.765Z,50.20
2018-11-23T02:33:34.282Z,50.10
2018-11-23T02:36:22.780Z,50.20
2018-11-23T02:42:16.707Z,50.20
2018-11-23T02:47:53.446Z,49.90
2018-11-23T02:50:41.984Z,50.00
2018-11-23T02:53:30.476Z,49.50
2018-11-23T02:56:19.092Z,49.80
2018-11-23T03:02:15.272Z,49.50
2018-11-23T03:05:03.785Z,49.10
2018-11-23T03:07:52.378Z,49.30
2018-11-23T03:10:40.909Z,49.50
2018-11-23T03:13:29.397Z,49.50
2018-11-23T03:16:17.909Z,49.60
2018-11-23T03:19:06.671Z,50.10
2018-11-23T03:21:55.210Z,49.40
2018-11-23T03:24:43.678Z,49.40
2018-11-23T03:27:32.256Z,50.00
2018-11-23T03:30:39.507Z,49.40
2018-11-23T03:33:28.012Z,49.50
2018-11-23T03:39:11.190Z,49.70
2018-11-23T03:41:59.734Z,49.70
2018-11-23T03:44:48.266Z,49.40
2018-11-23T03:47:36.811Z,49.70
2018-11-23T03:50:25.307Z,49.50
2018-11-23T03:53:13.830Z,50.00
2018-11-23T03:56:02.440Z,49.90
2018-11-23T03:58:34.279Z,49.90
2018-11-23T04:01:22.786Z,50.20
2018-11-23T04:04:11.380Z,50.10
2018-11-23T04:06:59.900Z,50.10
2018-11-23T04:09:48.406Z,50.10
2018-11-23T04:12:37.279Z,50.00
2018-11-23T04:15:25.779Z,50.40
2018-11-23T04:18:14.304Z,50.50
2018-11-23T04:21:03.627Z,50.60
2018-11-23T04:23:52.132Z,50.40
2018-11-23T04:26:40.708Z,50.30
2018-11-23T04:29:29.197Z,50.20
2018-11-23T04:32:17.707Z,50.40
2018-11-23T04:38:14.567Z,50.50
2018-11-23T04:41:03.088Z,50.40
2018-11-23T04:43:51.750Z,50.10
2018-11-23T04:46:40.262Z,49.80
2018-11-23T04:49:28.823Z,49.60
2018-11-23T04:52:17.342Z,49.90
2018-11-23T04:55:06.319Z,49.90
2018-11-23T04:57:54.864Z,49.80
2018-11-23T05:00:43.429Z,49.90
2018-11-23T05:03:32.484Z,50.30
2018-11-23T05:06:20.514Z,50.00
2018-11-23T05:09:09.666Z,50.00
2018-11-23T05:11:58.173Z,50.10
2018-11-23T05:14:46.691Z,50.10
2018-11-23T05:17:35.510Z,49.90
2018-11-23T05:20:24.026Z,49.90
2018-11-23T05:23:12.555Z,49.30
2018-11-23T05:26:01.078Z,50.00
2018-11-23T05:28:49.639Z,50.10
2018-11-23T05:31:38.169Z,50.10
2018-11-23T05:34:26.703Z,50.10
2018-11-23T05:37:15.228Z,50.00
2018-11-23T05:40:12.835Z,49.80
2018-11-23T05:43:04.468Z,50.20
2018-11-23T05:45:49.871Z,50.30
2018-11-23T05:48:38.481Z,50.40
2018-11-23T05:51:27.005Z,50.30
2018-11-23T05:54:15.621Z,50.40
2018-11-23T05:57:04.569Z,50.10
2018-11-23T05:59:53.178Z,50.40
2018-11-23T06:02:41.822Z,50.20
2018-11-23T06:05:30.341Z,50.10
2018-11-23T06:08:18.848Z,50.00
2018-11-23T06:14:15.590Z,49.70
2018-11-23T06:17:04.156Z,49.20
2018-11-23T06:19:52.684Z,49.30
2018-11-23T06:22:41.256Z,49.30
2018-11-23T06:25:48.755Z,49.40
2018-11-23T06:28:37.367Z,49.40
2018-11-23T06:31:26.216Z,49.20
2018-11-23T06:37:09.319Z,49.60
2018-11-23T06:39:58.254Z,49.50
2018-11-23T06:42:46.729Z,49.80
2018-11-23T06:45:54.059Z,49.70
2018-11-23T06:48:42.765Z,50.10
2018-11-23T06:51:31.275Z,49.40
2018-11-23T06:54:19.790Z,49.40
2018-11-23T06:57:08.421Z,49.40
2018-11-23T06:59:57.041Z,50.00
2018-11-23T07:02:45.987Z,49.30
2018-11-23T07:05:34.559Z,50.90
2018-11-23T07:08:23.636Z,50.20
2018-11-23T07:11:12.337Z,50.40
2018-11-23T07:14:04.091Z,49.80
2018-11-23T07:16:49.370Z,49.40
2018-11-23T07:19:38.113Z,49.60
2018-11-23T07:22:19.542Z,49.30
2018-11-23T07:25:00.836Z,49.20
2018-11-23T07:27:42.225Z,49.20
2018-11-23T07:30:26.950Z,49.30
2018-11-23T07:33:08.356Z,48.90
2018-11-23T07:35:49.457Z,49.00
2018-11-23T07:38:30.897Z,48.90
2018-11-23T07:41:11.549Z,48.80
2018-11-23T07:43:53.025Z,48.70
2018-11-23T07:46:34.340Z,48.50
2018-11-23T07:49:14.989Z,48.50
2018-11-23T07:51:55.897Z,48.40
2018-11-23T07:54:37.140Z,48.50
2018-11-23T07:57:18.320Z,48.50
2018-11-23T08:00:02.078Z,48.50
2018-11-23T08:02:44.085Z,48.50
2018-11-23T08:05:25.377Z,48.10
2018-11-23T08:08:06.709Z,48.20
2018-11-23T08:10:47.025Z,48.40
2018-11-23T08:13:28.064Z,47.90
2018-11-23T08:16:09.429Z,48.20
2018-11-23T08:18:50.574Z,47.90
2018-11-23T08:21:32.144Z,48.70
2018-11-23T08:24:13.411Z,48.60
2018-11-23T08:26:54.896Z,48.60
2018-11-23T08:29:36.491Z,48.80
2018-11-23T08:32:17.882Z,48.90
2018-11-23T08:34:58.943Z,48.50
2018-11-23T08:37:40.182Z,48.20
2018-11-23T08:40:25.501Z,49.00
2018-11-23T08:43:05.292Z,49.00
2018-11-23T08:45:53.809Z,49.10
2018-11-23T08:48:42.336Z,49.20
2018-11-23T08:51:31.651Z,49.70
2018-11-23T08:57:29.100Z,49.80
2018-11-23T09:00:36.930Z,49.60
2018-11-23T09:03:25.414Z,49.70
2018-11-23T09:06:34.651Z,49.10
2018-11-23T09:09:23.223Z,49.30
2018-11-23T09:12:34.599Z,49.00
2018-11-23T09:18:39.968Z,48.80
2018-11-23T09:21:28.557Z,48.50
2018-11-23T09:24:17.107Z,48.50
2018-11-23T09:27:05.751Z,48.50
2018-11-23T09:29:54.269Z,48.30
2018-11-23T09:32:42.906Z,48.30
2018-11-23T09:35:31.449Z,47.60
2018-11-23T09:38:20.075Z,48.00
2018-11-23T09:41:08.677Z,47.50
2018-11-23T09:43:57.169Z,47.70
2018-11-23T09:46:45.700Z,47.80
2018-11-23T09:49:34.545Z,46.90
2018-11-23T09:52:23.356Z,46.30
2018-11-23T09:55:12.010Z,46.40
2018-11-23T09:58:00.527Z,45.80
2018-11-23T10:00:49.055Z,45.80
2018-11-23T10:03:37.590Z,45.40
2018-11-23T10:06:26.109Z,44.30
2018-11-23T10:09:14.641Z,44.10
2018-11-23T10:12:03.201Z,43.90
2018-11-23T10:14:52.424Z,43.80
2018-11-23T10:17:41.020Z,43.00
2018-11-23T10:20:48.278Z,42.90
2018-11-23T10:23:36.850Z,43.30
2018-11-23T10:26:25.596Z,42.40
2018-11-23T10:29:14.515Z,42.60
2018-11-23T10:32:03.086Z,43.50
2018-11-23T10:34:51.585Z,42.60
2018-11-23T10:37:41.217Z,42.00
2018-11-23T10:40:31.446Z,40.60
2018-11-23T10:43:20.000Z,40.70
2018-11-23T10:46:08.565Z,40.50
2018-11-23T10:48:57.097Z,40.80
2018-11-23T10:51:45.650Z,40.80
2018-11-23T10:54:34.245Z,40.60
2018-11-23T10:57:22.748Z,39.70
2018-11-23T11:00:30.856Z,39.60
2018-11-23T11:03:38.202Z,39.00
2018-11-23T11:06:45.517Z,39.50
2018-11-23T11:09:34.053Z,39.00
2018-11-23T11:12:22.577Z,39.00
2018-11-23T11:15:11.293Z,39.70
2018-11-23T11:17:59.820Z,39.30
2018-11-23T11:20:48.742Z,40.50
2018-11-23T11:23:37.380Z,39.50
2018-11-23T11:26:25.945Z,41.10
2018-11-23T11:29:14.575Z,39.00
2018-11-23T11:32:03.084Z,38.40
2018-11-23T11:34:51.599Z,38.70
2018-11-23T11:37:40.500Z,39.80
2018-11-23T11:40:29.125Z,38.00
2018-11-23T11:43:17.662Z,38.00
2018-11-23T11:46:06.327Z,38.00
2018-11-23T11:48:54.843Z,38.90
2018-11-23T11:51:43.481Z,36.80
2018-11-23T11:54:32.046Z,36.90
2018-11-23T11:57:20.581Z,36.80
2018-11-23T12:00:11.155Z,36.10
2018-11-23T12:02:59.686Z,37.70
2018-11-23T12:05:48.300Z,37.00
2018-11-23T12:08:36.884Z,37.30
2018-11-23T12:11:25.411Z,35.90
2018-11-23T12:14:13.965Z,35.00
2018-11-23T12:17:02.618Z,35.20
2018-11-23T12:19:51.150Z,35.70
2018-11-23T12:22:39.824Z,35.90
2018-11-23T12:25:28.392Z,36.90
2018-11-23T12:28:16.918Z,36.20
2018-11-23T12:30:46.472Z,36.00
2018-11-23T12:33:35.926Z,36.60
2018-11-23T12:36:24.482Z,38.20
2018-11-23T12:39:12.978Z,36.60
2018-11-23T12:42:01.492Z,36.60
2018-11-23T12:44:50.007Z,36.20
2018-11-23T12:47:38.720Z,37.90
2018-11-23T12:50:27.219Z,36.80
2018-11-23T12:53:15.772Z,36.30
2018-11-23T12:56:04.648Z,36.10
2018-11-23T13:01:42.112Z,36.80
2018-11-23T13:04:30.856Z,36.60
2018-11-23T13:07:19.374Z,36.30
2018-11-23T13:10:08.094Z,37.70
2018-11-23T13:12:57.318Z,38.30
2018-11-23T13:15:45.882Z,37.80
2018-11-23T13:18:34.490Z,37.50
2018-11-23T13:21:23.026Z,38.60
2018-11-23T13:24:11.558Z,37.80
2018-11-23T13:27:00.089Z,37.60
2018-11-23T13:32:56.359Z,38.00
2018-11-23T13:35:44.862Z,38.10
2018-11-23T13:38:33.362Z,38.60
2018-11-23T13:41:40.724Z,38.20
2018-11-23T13:44:29.248Z,39.10
2018-11-23T13:47:17.775Z,39.40
2018-11-23T13:49:47.303Z,38.90
2018-11-23T13:52:36.022Z,39.80
2018-11-23T13:55:24.616Z,39.40
2018-11-23T13:58:13.156Z,38.80
2018-11-23T14:01:01.707Z,38.70
2018-11-23T14:03:50.192Z,40.30
2018-11-23T14:06:38.727Z,40.40
2018-11-23T14:09:27.231Z,38.70
2018-11-23T14:12:15.787Z,39.40
2018-11-23T14:15:04.517Z,39.50
2018-11-23T14:17:53.995Z,39.30
2018-11-23T14:20:42.526Z,39.50
2018-11-23T14:23:31.073Z,39.10
2018-11-23T14:26:19.598Z,39.40
2018-11-23T14:29:08.184Z,39.20
2018-11-23T14:31:56.693Z,39.60
2018-11-23T14:34:45.236Z,39.50
2018-11-23T14:37:33.787Z,39.80
2018-11-23T14:40:23.313Z,40.00
2018-11-23T14:43:11.853Z,40.40
2018-11-23T14:46:00.371Z,40.50
2018-11-23T14:48:48.899Z,40.40
2018-11-23T14:54:45.466Z,40.60
2018-11-23T14:57:34.013Z,41.20
2018-11-23T15:00:41.974Z,41.10
2018-11-23T15:03:30.466Z,41.90
2018-11-23T15:06:18.985Z,41.50
2018-11-23T15:09:09.023Z,41.60
2018-11-23T15:11:57.538Z,42.00
2018-11-23T15:14:46.136Z,42.00
2018-11-23T15:17:34.702Z,41.90
2018-11-23T15:20:24.219Z,42.20
2018-11-23T15:23:13.669Z,42.70
2018-11-23T15:26:02.278Z,42.80
2018-11-23T15:28:50.772Z,42.60
2018-11-23T15:31:39.430Z,42.60
2018-11-23T15:34:27.934Z,42.80
2018-11-23T15:37:16.466Z,42.50
2018-11-23T15:40:05.529Z,42.60
2018-11-23T15:43:04.405Z,42.50
2018-11-23T15:45:52.913Z,43.20
2018-11-23T15:48:41.854Z,43.00
2018-11-23T15:51:30.386Z,43.40
2018-11-23T15:54:18.926Z,43.80
2018-11-23T15:57:07.475Z,43.70
2018-11-23T15:59:55.974Z,44.30
2018-11-23T16:02:46.119Z,44.60
2018-11-23T16:05:34.741Z,44.10
2018-11-23T16:08:23.175Z,44.20
2018-11-23T16:11:11.686Z,43.80
2018-11-23T16:14:00.203Z,44.10
2018-11-23T16:16:48.725Z,44.30
2018-11-23T16:19:37.678Z,44.70
2018-11-23T16:22:26.202Z,44.80
2018-11-23T16:28:22.447Z,44.40
2018-11-23T16:31:11.092Z,44.30
2018-11-23T16:33:59.647Z,44.70
2018-11-23T16:36:48.131Z,44.20
2018-11-23T16:39:36.679Z,44.70
2018-11-23T16:42:25.202Z,44.60
2018-11-23T16:45:15.862Z,44.40
2018-11-23T16:48:05.709Z,44.20
2018-11-23T16:50:54.274Z,44.20
2018-11-23T16:53:42.807Z,44.20
2018-11-23T16:56:31.330Z,44.80
2018-11-23T16:59:19.880Z,44.60
2018-11-23T17:02:08.422Z,44.70
2018-11-23T17:04:56.966Z,44.50
2018-11-23T17:07:45.553Z,44.30
2018-11-23T17:10:34.089Z,44.90
2018-11-23T17:13:22.790Z,44.80
2018-11-23T17:16:11.342Z,44.80
2018-11-23T17:18:59.867Z,44.50
2018-11-23T17:21:48.500Z,44.70
2018-11-23T17:24:37.100Z,44.70
2018-11-23T17:27:25.848Z,44.70
2018-11-23T17:30:16.153Z,44.50
2018-11-23T17:33:04.784Z,44.90
2018-11-23T17:35:53.342Z,44.80
2018-11-23T17:38:47.225Z,45.00
2018-11-23T17:41:30.659Z,45.00
2018-11-23T17:47:13.861Z,45.30
2018-11-23T17:50:02.397Z,45.70
2018-11-23T17:55:50.967Z,45.70
2018-11-23T17:58:39.704Z,45.80
2018-11-23T18:01:20.479Z,46.30
2018-11-23T18:04:01.783Z,46.40
2018-11-23T18:06:42.947Z,46.40
2018-11-23T18:09:24.579Z,45.90
2018-11-23T18:12:06.147Z,45.90
2018-11-23T18:14:47.367Z,46.30
2018-11-23T18:17:30.040Z,46.10
2018-11-23T18:20:10.906Z,46.20
2018-11-23T18:23:00.218Z,46.00
2018-11-23T18:25:48.745Z,45.70
2018-11-23T18:28:37.457Z,45.70
2018-11-23T18:31:25.952Z,46.20
2018-11-23T18:34:16.200Z,51.00
2018-11-23T18:37:04.992Z,56.00
2018-11-23T18:39:54.006Z,58.40
2018-11-23T18:42:42.660Z,55.40
2018-11-23T18:45:31.602Z,54.10
2018-11-23T18:48:20.129Z,51.50
2018-11-23T18:56:44.611Z,50.10
2018-11-23T18:59:33.154Z,48.70
2018-11-23T19:02:21.698Z,48.20
2018-11-23T19:05:32.955Z,48.10
2018-11-23T19:08:21.461Z,47.80
2018-11-23T19:11:10.029Z,50.80
2018-11-23T19:13:58.578Z,50.40
2018-11-23T19:16:47.065Z,48.90
2018-11-23T19:19:35.640Z,47.30
2018-11-23T19:22:24.205Z,47.90
2018-11-23T19:25:12.767Z,46.80
2018-11-23T19:27:42.489Z,45.80
2018-11-23T19:30:31.377Z,47.70
2018-11-23T19:33:19.880Z,46.40
2018-11-23T19:36:08.560Z,45.50
2018-11-23T20:04:45.628Z,49.50
2018-11-23T20:07:14.181Z,37.30
2018-11-23T20:09:42.632Z,36.00
2018-11-23T20:12:11.037Z,33.50
2018-11-23T20:14:39.408Z,33.00
2018-11-23T20:17:07.879Z,36.70
2018-11-23T20:19:36.511Z,38.50
2018-11-23T20:22:05.066Z,40.40
2018-11-23T20:24:33.366Z,42.60
2018-11-23T20:27:01.913Z,44.40
2018-11-23T20:29:30.221Z,45.60
2018-11-23T20:31:58.583Z,47.50
2018-11-23T20:34:27.373Z,50.20
2018-11-23T20:36:56.417Z,52.90
2018-11-23T20:39:25.195Z,53.40
2018-11-23T20:41:53.962Z,54.70
2018-11-23T20:44:22.284Z,56.40
2018-11-23T20:46:50.577Z,56.90
2018-11-23T20:49:18.914Z,58.10
2018-11-23T20:51:47.205Z,58.90
2018-11-23T20:54:16.060Z,59.40
2018-11-23T20:56:45.342Z,59.40
2018-11-23T20:59:14.279Z,60.70
2018-11-23T21:01:43.211Z,60.70
2018-11-23T21:04:12.252Z,61.20
2018-11-23T21:06:41.253Z,61.90
2018-11-23T21:09:10.383Z,60.60
2018-11-23T21:11:39.574Z,61.50
2018-11-23T21:14:08.929Z,63.00
2018-11-23T21:16:38.451Z,62.50
2018-11-23T21:19:07.960Z,63.00
2018-11-23T21:21:36.450Z,63.70
2018-11-23T21:24:05.577Z,63.50
2018-11-23T21:26:33.998Z,63.60
2018-11-23T21:29:02.306Z,63.90
2018-11-23T21:31:30.714Z,64.80
2018-11-23T21:33:59.028Z,65.20
2018-11-23T21:36:27.465Z,64.60
2018-11-23T21:38:55.750Z,64.60
2018-11-23T21:41:29.660Z,65.40
2018-11-23T21:43:52.561Z,65.60
2018-11-23T21:46:20.966Z,65.30
2018-11-23T21:48:49.310Z,64.30
2018-11-23T21:51:17.622Z,65.20
2018-11-23T21:53:46.017Z,65.20
2018-11-23T21:56:14.355Z,65.00
2018-11-23T21:58:42.705Z,64.80
2018-11-23T22:01:11.267Z,65.20
2018-11-23T22:03:39.673Z,63.90
2018-11-23T22:06:08.109Z,64.50
2018-11-23T22:08:36.490Z,63.30
2018-11-23T22:11:05.780Z,63.40
2018-11-23T22:13:34.231Z,63.90
2018-11-23T22:16:02.734Z,63.90
2018-11-23T22:18:31.128Z,63.40
2018-11-23T22:20:59.421Z,63.20
2018-11-23T22:23:27.757Z,64.00
2018-11-23T22:25:56.068Z,63.50
2018-11-23T22:28:24.397Z,63.50
2018-11-23T22:30:52.768Z,63.80
2018-11-23T22:33:21.074Z,63.80
2018-11-23T22:35:49.527Z,64.30
2018-11-23T22:38:17.864Z,63.80
2018-11-23T22:40:46.265Z,63.20
2018-11-23T22:43:14.776Z,63.90
2018-11-23T22:45:43.151Z,62.50
2018-11-23T22:48:11.557Z,62.30
2018-11-23T22:50:40.095Z,62.20
2018-11-23T22:53:08.579Z,62.70
2018-11-23T22:55:36.973Z,62.50
2018-11-23T22:58:05.542Z,62.30
2018-11-23T23:00:40.979Z,62.80
2018-11-23T23:03:09.733Z,63.10
2018-11-23T23:05:38.111Z,63.30
2018-11-23T23:08:07.045Z,63.30
2018-11-23T23:10:35.469Z,64.00
2018-11-23T23:13:03.894Z,64.00
2018-11-23T23:15:32.277Z,64.10
2018-11-23T23:18:00.643Z,64.50
2018-11-23T23:20:28.999Z,64.60
2018-11-23T23:22:57.339Z,64.20
2018-11-23T23:25:25.619Z,64.20
2018-11-23T23:27:54.103Z,64.60
2018-11-23T23:30:22.486Z,64.60
2018-11-23T23:32:50.789Z,64.20
2018-11-23T23:35:19.093Z,63.60
2018-11-23T23:37:47.432Z,63.70
2018-11-23T23:40:17.071Z,63.90
2018-11-23T23:42:51.142Z,64.70
2018-11-23T23:45:23.454Z,64.10
2018-11-23T23:47:51.801Z,64.00
2018-11-23T23:50:20.955Z,64.30
2018-11-23T23:52:49.829Z,64.40
2018-11-23T23:55:18.269Z,64.50
2018-11-23T23:57:47.174Z,64.80
